Climatologie pour Saint-Brevin les Pins
Jour • Résumé pour février 10, 2018 Système :  Mixte    Anglais   Métrique
« - 1 jour
+ 1 jour »
Jour Semaine Mois Année Personnalisé
  Maximum : Minimum : Moyenne :
Température sous abri : TemperatureC °F /  -17.8 °C -0.9 °F /  -18.3 °C 5.3 °F /  -14.8 °C
Point de rosée : DewpointC °F /  -17.8 °C -1.6 °F /  -18.7 °C 3.9 °F /  -15.6 °C
Humidité : Humidity % 74 % 90 %
Vitesse du vent : WindSpeedKMH mph /  0 km/h - 6.2 mph /  10 km/h
Rafale : WindSpeedGustKMH mph /  0 km/h - -
Direction :- - SW
Pression : PressurehPa in /  0 hPa 1011.7 in /  34256.2 hPa -
Précipitations : 2.0 in /  50.8 mm    
Historical Graphs
 
 
Tableau de données pour février 10, 2018
Heure Tempé Pt rosée Pression Vent Vitesse Rafale Humidité Taux pluie (/hr) Soleil
TemperatureC °F /  -17.8 °C DewpointC °F /  -17.8 °C PressurehPa in /  0 hPa Calm     Humidity % HourlyPrecipMM in /  0 mm SolarRadiationWatts/m^2 W/m2 Conditions
00:00 3.2 °F /  -16 °C 1.2 °F /  -17.1 °C 1023.2 in /  34645.6 hPa NNW 4.8 mph /  7.7 km/h 14.5 mph /  23.3 km/h 87 % 0.0 in /  0 mm 0 W/m2
00:05 3.1 °F /  -16.1 °C 1.1 °F /  -17.2 °C 1023.2 in /  34645.6 hPa WNW 6.4 mph /  10.3 km/h 14.5 mph /  23.3 km/h 87 % 0.0 in /  0 mm 0 W/m2
00:10 3.2 °F /  -16 °C 1.0 °F /  -17.2 °C 1023.2 in /  34645.6 hPa WNW 4.8 mph /  7.7 km/h 14.5 mph /  23.3 km/h 86 % 0.0 in /  0 mm 0 W/m2
00:15 3.1 °F /  -16.1 °C 0.9 °F /  -17.3 °C 1023.2 in /  34645.6 hPa WNW 4.8 mph /  7.7 km/h 11.3 mph /  18.2 km/h 86 % 0.0 in /  0 mm 0 W/m2
00:20 2.8 °F /  -16.2 °C 0.8 °F /  -17.3 °C 1023.2 in /  34645.6 hPa NW 1.6 mph /  2.6 km/h 11.3 mph /  18.2 km/h 87 % 0.0 in /  0 mm 0 W/m2
00:25 2.6 °F /  -16.3 °C 0.6 °F /  -17.4 °C 1023.2 in /  34645.6 hPa NW 3.2 mph /  5.1 km/h 12.9 mph /  20.8 km/h 87 % 0.0 in /  0 mm 0 W/m2
00:30 2.3 °F /  -16.5 °C 0.5 °F /  -17.5 °C 1022.9 in /  34635.4 hPa WNW 1.6 mph /  2.6 km/h 12.9 mph /  20.8 km/h 88 % 0.0 in /  0 mm 0 W/m2
00:35 2.3 °F /  -16.5 °C 0.7 °F /  -17.4 °C 1023.2 in /  34645.6 hPa WNW 3.2 mph /  5.1 km/h 14.5 mph /  23.3 km/h 89 % 0.0 in /  0 mm 0 W/m2
00:45 2.4 °F /  -16.4 °C 0.8 °F /  -17.3 °C 1023.2 in /  34645.6 hPa WNW 4.8 mph /  7.7 km/h 11.3 mph /  18.2 km/h 89 % 0.0 in /  0 mm 0 W/m2
00:50 2.4 °F /  -16.4 °C 0.8 °F /  -17.3 °C 1022.9 in /  34635.4 hPa WNW 6.4 mph /  10.3 km/h 6.4 mph /  10.3 km/h 89 % 0.0 in /  0 mm 0 W/m2
00:55 2.3 °F /  -16.5 °C 0.7 °F /  -17.4 °C 1022.9 in /  34635.4 hPa WNW 9.7 mph /  15.6 km/h 9.7 mph /  15.6 km/h 89 % 0.0 in /  0 mm 0 W/m2
01:00 2.4 °F /  -16.4 °C 0.8 °F /  -17.3 °C 1022.9 in /  34635.4 hPa Calm   11.3 mph /  18.2 km/h 89 % 0.0 in /  0 mm 0 W/m2
01:05 2.4 °F /  -16.4 °C 0.8 °F /  -17.3 °C 1022.9 in /  34635.4 hPa NW 4.8 mph /  7.7 km/h 12.9 mph /  20.8 km/h 89 % 0.0 in /  0 mm 0 W/m2
01:10 2.2 °F /  -16.6 °C 0.4 °F /  -17.6 °C 1022.9 in /  34635.4 hPa WNW 8.0 mph /  12.9 km/h 12.9 mph /  20.8 km/h 88 % 0.0 in /  0 mm 0 W/m2
01:15 2.2 °F /  -16.6 °C 0.6 °F /  -17.4 °C 1022.9 in /  34635.4 hPa NW 4.8 mph /  7.7 km/h 11.3 mph /  18.2 km/h 89 % 0.0 in /  0 mm 0 W/m2
01:20 2.2 °F /  -16.6 °C 0.5 °F /  -17.5 °C 1022.9 in /  34635.4 hPa Calm   11.3 mph /  18.2 km/h 89 % 0.0 in /  0 mm 0 W/m2
01:30 2.1 °F /  -16.6 °C 0.6 °F /  -17.4 °C 1022.9 in /  34635.4 hPa NW 3.2 mph /  5.1 km/h 8.0 mph /  12.9 km/h 90 % 0.0 in /  0 mm 0 W/m2
01:35 2.1 °F /  -16.6 °C 0.6 °F /  -17.4 °C 1022.9 in /  34635.4 hPa NW 1.6 mph /  2.6 km/h 9.7 mph /  15.6 km/h 90 % 0.0 in /  0 mm 0 W/m2
01:40 1.9 °F /  -16.7 °C 0.3 °F /  -17.6 °C 1023.2 in /  34645.6 hPa NNW 4.8 mph /  7.7 km/h 9.7 mph /  15.6 km/h 89 % 0.0 in /  0 mm 0 W/m2
01:50 2.1 °F /  -16.6 °C 0.6 °F /  -17.4 °C 1023.2 in /  34645.6 hPa NW 4.8 mph /  7.7 km/h 9.7 mph /  15.6 km/h 90 % 0.0 in /  0 mm 0 W/m2
01:55 2.1 °F /  -16.6 °C 0.6 °F /  -17.4 °C 1023.2 in /  34645.6 hPa WNW 4.8 mph /  7.7 km/h 9.7 mph /  15.6 km/h 90 % 0.0 in /  0 mm 0 W/m2
02:00 2.1 °F /  -16.6 °C 0.6 °F /  -17.4 °C 1023.2 in /  34645.6 hPa NNW 1.6 mph /  2.6 km/h 9.7 mph /  15.6 km/h 90 % 0.0 in /  0 mm 0 W/m2
02:05 1.8 °F /  -16.8 °C 0.4 °F /  -17.6 °C 1023.2 in /  34645.6 hPa Calm   6.4 mph /  10.3 km/h 90 % 0.0 in /  0 mm 0 W/m2
02:15 1.7 °F /  -16.8 °C 0.4 °F /  -17.6 °C 1023.6 in /  34659.1 hPa NW 3.2 mph /  5.1 km/h 9.7 mph /  15.6 km/h 91 % 0.0 in /  0 mm 0 W/m2
02:20 2.0 °F /  -16.7 °C 0.7 °F /  -17.4 °C 1023.6 in /  34659.1 hPa NNW 8.0 mph /  12.9 km/h 9.7 mph /  15.6 km/h 91 % 0.0 in /  0 mm 0 W/m2
02:25 2.1 °F /  -16.6 °C 0.8 °F /  -17.3 °C 1023.6 in /  34659.1 hPa NW 4.8 mph /  7.7 km/h 9.7 mph /  15.6 km/h 91 % 0.0 in /  0 mm 0 W/m2
02:30 2.1 °F /  -16.6 °C 0.6 °F /  -17.4 °C 1023.6 in /  34659.1 hPa NW 3.2 mph /  5.1 km/h 8.0 mph /  12.9 km/h 90 % 0.0 in /  0 mm 0 W/m2
02:35 1.9 °F /  -16.7 °C 0.5 °F /  -17.5 °C 1023.2 in /  34645.6 hPa Calm   8.0 mph /  12.9 km/h 90 % 0.0 in /  0 mm 0 W/m2
02:40 2.0 °F /  -16.7 °C 0.7 °F /  -17.4 °C 1023.2 in /  34645.6 hPa Calm   9.7 mph /  15.6 km/h 91 % 0.0 in /  0 mm 0 W/m2
02:45 1.9 °F /  -16.7 °C 0.4 °F /  -17.6 °C 1023.2 in /  34645.6 hPa Calm   9.7 mph /  15.6 km/h 90 % 0.0 in /  0 mm 0 W/m2
02:50 1.7 °F /  -16.8 °C 0.4 °F /  -17.6 °C 1023.2 in /  34645.6 hPa Calm   6.4 mph /  10.3 km/h 91 % 0.0 in /  0 mm 0 W/m2
03:00 1.2 °F /  -17.1 °C -0.1 °F /  -17.8 °C 1022.9 in /  34635.4 hPa Calm   4.8 mph /  7.7 km/h 91 % 0.0 in /  0 mm 0 W/m2
03:05 1.1 °F /  -17.2 °C 0.0 °F /  -17.8 °C 1022.9 in /  34635.4 hPa Calm   4.8 mph /  7.7 km/h 92 % 0.0 in /  0 mm 0 W/m2
03:10 1.1 °F /  -17.2 °C -0.1 °F /  -17.8 °C 1022.6 in /  34625.2 hPa Calm   3.2 mph /  5.1 km/h 92 % 0.0 in /  0 mm 0 W/m2
03:15 1.1 °F /  -17.2 °C 0.0 °F /  -17.8 °C 1022.6 in /  34625.2 hPa Calm   3.2 mph /  5.1 km/h 92 % 0.0 in /  0 mm 0 W/m2
03:20 1.1 °F /  -17.2 °C -0.1 °F /  -17.8 °C 1022.6 in /  34625.2 hPa Calm     92 % 0.0 in /  0 mm 0 W/m2
03:25 0.9 °F /  -17.3 °C -0.1 °F /  -17.8 °C 1022.6 in /  34625.2 hPa Calm     93 % 0.0 in /  0 mm 0 W/m2
03:30 0.8 °F /  -17.3 °C -0.3 °F /  -17.9 °C 1022.6 in /  34625.2 hPa Calm     92 % 0.0 in /  0 mm 0 W/m2
03:35 0.7 °F /  -17.4 °C -0.3 °F /  -17.9 °C 1022.6 in /  34625.2 hPa Calm   3.2 mph /  5.1 km/h 93 % 0.0 in /  0 mm 0 W/m2
03:45 0.3 °F /  -17.6 °C -0.7 °F /  -18.2 °C 1022.6 in /  34625.2 hPa NW 3.2 mph /  5.1 km/h 6.4 mph /  10.3 km/h 93 % 0.0 in /  0 mm 0 W/m2
03:50 0.4 °F /  -17.6 °C -0.6 °F /  -18.1 °C 1022.6 in /  34625.2 hPa WNW 4.8 mph /  7.7 km/h 8.0 mph /  12.9 km/h 93 % 0.0 in /  0 mm 0 W/m2
03:55 0.4 °F /  -17.6 °C -0.6 °F /  -18.1 °C 1022.6 in /  34625.2 hPa WNW 1.6 mph /  2.6 km/h 8.0 mph /  12.9 km/h 93 % 0.0 in /  0 mm 0 W/m2
04:00 0.4 °F /  -17.6 °C -0.5 °F /  -18.1 °C 1022.6 in /  34625.2 hPa Calm   6.4 mph /  10.3 km/h 94 % 0.0 in /  0 mm 0 W/m2
04:05 0.3 °F /  -17.6 °C -0.6 °F /  -18.1 °C 1022.6 in /  34625.2 hPa NW 3.2 mph /  5.1 km/h 4.8 mph /  7.7 km/h 94 % 0.0 in /  0 mm 0 W/m2
04:10 0.2 °F /  -17.7 °C -0.7 °F /  -18.2 °C 1022.6 in /  34625.2 hPa NW 1.6 mph /  2.6 km/h 4.8 mph /  7.7 km/h 94 % 0.0 in /  0 mm 0 W/m2
04:15 0.0 °F /  -17.8 °C -0.9 °F /  -18.3 °C 1022.6 in /  34625.2 hPa Calm   4.8 mph /  7.7 km/h 94 % 0.0 in /  0 mm 0 W/m2
04:20 0.1 °F /  -17.7 °C -0.8 °F /  -18.2 °C 1022.6 in /  34625.2 hPa Calm   1.6 mph /  2.6 km/h 94 % 0.0 in /  0 mm 0 W/m2
04:25 0.0 °F /  -17.8 °C -0.9 °F /  -18.3 °C 1022.6 in /  34625.2 hPa Calm   4.8 mph /  7.7 km/h 94 % 0.0 in /  0 mm 0 W/m2
04:30 -0.1 °F /  -17.8 °C -1.0 °F /  -18.3 °C 1022.6 in /  34625.2 hPa Calm   4.8 mph /  7.7 km/h 94 % 0.0 in /  0 mm 0 W/m2
04:35 -0.1 °F /  -17.8 °C -0.9 °F /  -18.3 °C 1022.6 in /  34625.2 hPa Calm   3.2 mph /  5.1 km/h 94 % 0.0 in /  0 mm 0 W/m2
04:40 -0.1 °F /  -17.8 °C -1.0 °F /  -18.3 °C 1022.6 in /  34625.2 hPa Calm   1.6 mph /  2.6 km/h 94 % 0.0 in /  0 mm 0 W/m2
04:45 -0.2 °F /  -17.9 °C -1.1 °F /  -18.4 °C 1022.2 in /  34611.7 hPa Calm     94 % 0.0 in /  0 mm 0 W/m2
04:50 -0.3 °F /  -17.9 °C -1.2 °F /  -18.4 °C 1022.2 in /  34611.7 hPa Calm     94 % 0.0 in /  0 mm 0 W/m2
04:55 -0.4 °F /  -18 °C -1.3 °F /  -18.5 °C 1022.6 in /  34625.2 hPa Calm     94 % 0.0 in /  0 mm 0 W/m2
05:00 -0.6 °F /  -18.1 °C -1.5 °F /  -18.6 °C 1022.6 in /  34625.2 hPa Calm     94 % 0.0 in /  0 mm 0 W/m2
05:05 -0.7 °F /  -18.2 °C -1.6 °F /  -18.7 °C 1022.6 in /  34625.2 hPa Calm     94 % 0.0 in /  0 mm 0 W/m2
05:15 -0.7 °F /  -18.2 °C -1.4 °F /  -18.6 °C 1022.2 in /  34611.7 hPa Calm     95 % 0.0 in /  0 mm 0 W/m2
05:20 -0.7 °F /  -18.2 °C -1.4 °F /  -18.6 °C 1022.2 in /  34611.7 hPa Calm     95 % 0.0 in /  0 mm 0 W/m2
05:25 -0.8 °F /  -18.2 °C -1.5 °F /  -18.6 °C 1022.2 in /  34611.7 hPa Calm     95 % 0.0 in /  0 mm 0 W/m2
05:30 -0.9 °F /  -18.3 °C -1.6 °F /  -18.7 °C 1022.6 in /  34625.2 hPa Calm     95 % 0.0 in /  0 mm 0 W/m2
05:35 -0.8 °F /  -18.2 °C -1.5 °F /  -18.6 °C 1022.2 in /  34611.7 hPa Calm     95 % 0.0 in /  0 mm 0 W/m2
05:40 -0.4 °F /  -18 °C -1.1 °F /  -18.4 °C 1022.2 in /  34611.7 hPa Calm     95 % 0.0 in /  0 mm 0 W/m2
05:45 -0.3 °F /  -17.9 °C -1.0 °F /  -18.3 °C 1022.2 in /  34611.7 hPa Calm     95 % 0.0 in /  0 mm 0 W/m2
05:50 -0.2 °F /  -17.9 °C -0.9 °F /  -18.3 °C 1022.2 in /  34611.7 hPa Calm     95 % 0.0 in /  0 mm 0 W/m2
06:00 -0.2 °F /  -17.9 °C -0.9 °F /  -18.3 °C 1022.2 in /  34611.7 hPa Calm     95 % 0.0 in /  0 mm 0 W/m2
06:05 -0.3 °F /  -17.9 °C -1.0 °F /  -18.3 °C 1022.2 in /  34611.7 hPa Calm     95 % 0.0 in /  0 mm 0 W/m2
06:10 -0.3 °F /  -17.9 °C -1.0 °F /  -18.3 °C 1022.2 in /  34611.7 hPa Calm     95 % 0.0 in /  0 mm 0 W/m2
06:15 -0.4 °F /  -18 °C -1.1 °F /  -18.4 °C 1022.2 in /  34611.7 hPa Calm     95 % 0.0 in /  0 mm 0 W/m2
06:20 -0.8 °F /  -18.2 °C -1.5 °F /  -18.6 °C 1022.2 in /  34611.7 hPa Calm     95 % 0.0 in /  0 mm 0 W/m2
06:25 -0.6 °F /  -18.1 °C -1.3 °F /  -18.5 °C 1022.6 in /  34625.2 hPa Calm     95 % 0.0 in /  0 mm 0 W/m2
06:30 -0.6 °F /  -18.1 °C -1.3 °F /  -18.5 °C 1022.6 in /  34625.2 hPa Calm     95 % 0.0 in /  0 mm 0 W/m2
06:35 -0.7 °F /  -18.2 °C -1.4 °F /  -18.6 °C 1022.6 in /  34625.2 hPa Calm     95 % 0.0 in /  0 mm 0 W/m2
06:45 -0.7 °F /  -18.2 °C -1.4 °F /  -18.6 °C 1022.6 in /  34625.2 hPa Calm     95 % 0.0 in /  0 mm 0 W/m2
06:50 -0.6 °F /  -18.1 °C -1.3 °F /  -18.5 °C 1022.6 in /  34625.2 hPa Calm     95 % 0.0 in /  0 mm 0 W/m2
06:55 -0.6 °F /  -18.1 °C -1.3 °F /  -18.5 °C 1022.6 in /  34625.2 hPa Calm     95 % 0.0 in /  0 mm 0 W/m2
07:00 -0.6 °F /  -18.1 °C -1.3 °F /  -18.5 °C 1022.6 in /  34625.2 hPa Calm     95 % 0.0 in /  0 mm 0 W/m2
07:05 -0.6 °F /  -18.1 °C -1.3 °F /  -18.5 °C 1022.6 in /  34625.2 hPa Calm   3.2 mph /  5.1 km/h 95 % 0.0 in /  0 mm 0 W/m2
07:10 -0.4 °F /  -18 °C -1.1 °F /  -18.4 °C 1022.6 in /  34625.2 hPa Calm   3.2 mph /  5.1 km/h 95 % 0.0 in /  0 mm 0 W/m2
07:15 -0.3 °F /  -17.9 °C -0.8 °F /  -18.2 °C 1022.6 in /  34625.2 hPa Calm     96 % 0.0 in /  0 mm 0 W/m2
07:20 -0.2 °F /  -17.9 °C -0.9 °F /  -18.3 °C 1022.6 in /  34625.2 hPa Calm     95 % 0.0 in /  0 mm 0 W/m2
07:25 -0.1 °F /  -17.8 °C -0.8 °F /  -18.2 °C 1022.6 in /  34625.2 hPa Calm     95 % 0.0 in /  0 mm 0 W/m2
07:30 0.0 °F /  -17.8 °C -0.6 °F /  -18.1 °C 1022.6 in /  34625.2 hPa Calm     96 % 0.0 in /  0 mm 0 W/m2
07:35 0.0 °F /  -17.8 °C -0.6 °F /  -18.1 °C 1022.6 in /  34625.2 hPa Calm     96 % 0.0 in /  0 mm 0 W/m2
07:40 0.0 °F /  -17.8 °C -0.7 °F /  -18.2 °C 1022.6 in /  34625.2 hPa Calm     95 % 0.0 in /  0 mm 0 W/m2
07:45 -0.1 °F /  -17.8 °C -0.8 °F /  -18.2 °C 1022.2 in /  34611.7 hPa Calm     95 % 0.0 in /  0 mm 0 W/m2
07:50 -0.2 °F /  -17.9 °C -0.9 °F /  -18.3 °C 1022.2 in /  34611.7 hPa WSW 3.2 mph /  5.1 km/h 4.8 mph /  7.7 km/h 95 % 0.0 in /  0 mm 0 W/m2
07:55 -0.3 °F /  -17.9 °C -1.0 °F /  -18.3 °C 1022.2 in /  34611.7 hPa WSW 3.2 mph /  5.1 km/h 4.8 mph /  7.7 km/h 95 % 0.0 in /  0 mm 0 W/m2
08:00 -0.3 °F /  -17.9 °C -1.0 °F /  -18.3 °C 1022.2 in /  34611.7 hPa WSW 1.6 mph /  2.6 km/h 4.8 mph /  7.7 km/h 95 % 0.0 in /  0 mm 0 W/m2
08:05 -0.2 °F /  -17.9 °C -0.9 °F /  -18.3 °C 1022.6 in /  34625.2 hPa Calm   4.8 mph /  7.7 km/h 95 % 0.0 in /  0 mm 0 W/m2
08:10 -0.4 °F /  -18 °C -1.1 °F /  -18.4 °C 1022.6 in /  34625.2 hPa Calm   4.8 mph /  7.7 km/h 95 % 0.0 in /  0 mm 0 W/m2
08:15 -0.5 °F /  -18.1 °C -1.2 °F /  -18.4 °C 1022.6 in /  34625.2 hPa Calm     95 % 0.0 in /  0 mm 0 W/m2
08:20 -0.4 °F /  -18 °C -1.1 °F /  -18.4 °C 1022.6 in /  34625.2 hPa Calm     95 % 0.0 in /  0 mm 0 W/m2
08:25 -0.4 °F /  -18 °C -1.1 °F /  -18.4 °C 1022.6 in /  34625.2 hPa Calm     95 % 0.0 in /  0 mm 5 W/m2
08:30 -0.4 °F /  -18 °C -1.1 °F /  -18.4 °C 1022.9 in /  34635.4 hPa Calm     95 % 0.0 in /  0 mm 7 W/m2
08:35 -0.4 °F /  -18 °C -1.1 °F /  -18.4 °C 1022.9 in /  34635.4 hPa Calm     95 % 0.0 in /  0 mm 12 W/m2
08:40 -0.3 °F /  -17.9 °C -0.9 °F /  -18.3 °C 1022.6 in /  34625.2 hPa Calm     96 % 0.0 in /  0 mm 16 W/m2
08:45 -0.3 °F /  -17.9 °C -0.8 °F /  -18.2 °C 1022.9 in /  34635.4 hPa Calm     96 % 0.0 in /  0 mm 21 W/m2
08:50 -0.2 °F /  -17.9 °C -0.7 °F /  -18.2 °C 1022.9 in /  34635.4 hPa WSW 3.2 mph /  5.1 km/h 4.8 mph /  7.7 km/h 96 % 0.0 in /  0 mm 25 W/m2
08:55 0.0 °F /  -17.8 °C -0.6 °F /  -18.1 °C 1022.9 in /  34635.4 hPa WSW 1.6 mph /  2.6 km/h 4.8 mph /  7.7 km/h 96 % 0.0 in /  0 mm 30 W/m2
09:00 0.2 °F /  -17.7 °C -0.4 °F /  -18 °C 1022.6 in /  34625.2 hPa WSW 3.2 mph /  5.1 km/h 4.8 mph /  7.7 km/h 96 % 0.0 in /  0 mm 44 W/m2
09:05 0.4 °F /  -17.6 °C -0.1 °F /  -17.8 °C 1022.6 in /  34625.2 hPa WSW 3.2 mph /  5.1 km/h 4.8 mph /  7.7 km/h 96 % 0.0 in /  0 mm 51 W/m2
09:10 0.7 °F /  -17.4 °C 0.2 °F /  -17.7 °C 1022.6 in /  34625.2 hPa WSW 3.2 mph /  5.1 km/h 4.8 mph /  7.7 km/h 96 % 0.0 in /  0 mm 53 W/m2
09:15 1.0 °F /  -17.2 °C 0.4 °F /  -17.6 °C 1022.6 in /  34625.2 hPa SW 3.2 mph /  5.1 km/h 4.8 mph /  7.7 km/h 96 % 0.0 in /  0 mm 58 W/m2
09:20 1.3 °F /  -17.1 °C 0.7 °F /  -17.4 °C 1022.6 in /  34625.2 hPa SW 1.6 mph /  2.6 km/h 4.8 mph /  7.7 km/h 96 % 0.0 in /  0 mm 54 W/m2
09:25 1.4 °F /  -17 °C 0.9 °F /  -17.3 °C 1022.9 in /  34635.4 hPa SSW 1.6 mph /  2.6 km/h 4.8 mph /  7.7 km/h 96 % 0.0 in /  0 mm 62 W/m2
09:30 1.6 °F /  -16.9 °C 1.0 °F /  -17.2 °C 1022.9 in /  34635.4 hPa South 3.2 mph /  5.1 km/h 6.4 mph /  10.3 km/h 96 % 0.0 in /  0 mm 58 W/m2
09:35 1.6 °F /  -16.9 °C 0.8 °F /  -17.3 °C 1022.6 in /  34625.2 hPa South 4.8 mph /  7.7 km/h 6.4 mph /  10.3 km/h 95 % 0.0 in /  0 mm 49 W/m2
09:45 1.7 °F /  -16.8 °C 1.0 °F /  -17.2 °C 1022.6 in /  34625.2 hPa Calm   6.4 mph /  10.3 km/h 95 % 0.0 in /  0 mm 81 W/m2
09:55 2.1 °F /  -16.6 °C 1.4 °F /  -17 °C 1022.6 in /  34625.2 hPa South 4.8 mph /  7.7 km/h 4.8 mph /  7.7 km/h 95 % 0.0 in /  0 mm 53 W/m2
10:00 2.4 °F /  -16.4 °C 1.7 °F /  -16.8 °C 1022.6 in /  34625.2 hPa South 4.8 mph /  7.7 km/h 6.4 mph /  10.3 km/h 95 % 0.0 in /  0 mm 67 W/m2
10:05 3.1 °F /  -16.1 °C 2.3 °F /  -16.5 °C 1022.6 in /  34625.2 hPa SSE 4.8 mph /  7.7 km/h 6.4 mph /  10.3 km/h 95 % 0.0 in /  0 mm 100 W/m2
10:10 3.8 °F /  -15.7 °C 3.1 °F /  -16.1 °C 1022.6 in /  34625.2 hPa South 6.4 mph /  10.3 km/h 8.0 mph /  12.9 km/h 95 % 0.0 in /  0 mm 121 W/m2
10:15 4.3 °F /  -15.4 °C 3.3 °F /  -15.9 °C 1022.6 in /  34625.2 hPa South 6.4 mph /  10.3 km/h 8.0 mph /  12.9 km/h 93 % 0.0 in /  0 mm 97 W/m2
10:20 4.7 °F /  -15.2 °C 3.5 °F /  -15.8 °C 1022.2 in /  34611.7 hPa South 4.8 mph /  7.7 km/h 8.0 mph /  12.9 km/h 92 % 0.0 in /  0 mm 76 W/m2
10:30 5.2 °F /  -14.9 °C 3.8 °F /  -15.7 °C 1022.2 in /  34611.7 hPa South 4.8 mph /  7.7 km/h 9.7 mph /  15.6 km/h 91 % 0.0 in /  0 mm 207 W/m2
10:35 5.6 °F /  -14.7 °C 4.1 °F /  -15.5 °C 1022.6 in /  34625.2 hPa South 6.4 mph /  10.3 km/h 11.3 mph /  18.2 km/h 90 % 0.0 in /  0 mm 183 W/m2
10:40 6.1 °F /  -14.4 °C 4.4 °F /  -15.3 °C 1022.6 in /  34625.2 hPa South 6.4 mph /  10.3 km/h 11.3 mph /  18.2 km/h 89 % 0.0 in /  0 mm 258 W/m2
10:45 6.3 °F /  -14.3 °C 4.2 °F /  -15.4 °C 1022.6 in /  34625.2 hPa South 6.4 mph /  10.3 km/h 12.9 mph /  20.8 km/h 86 % 0.0 in /  0 mm 146 W/m2
10:50 6.3 °F /  -14.3 °C 3.9 °F /  -15.6 °C 1022.2 in /  34611.7 hPa South 8.0 mph /  12.9 km/h 14.5 mph /  23.3 km/h 85 % 0.0 in /  0 mm 118 W/m2
11:00 6.6 °F /  -14.1 °C 4.2 °F /  -15.4 °C 1022.2 in /  34611.7 hPa South 8.0 mph /  12.9 km/h 11.3 mph /  18.2 km/h 85 % 0.0 in /  0 mm 290 W/m2
11:05 6.9 °F /  -13.9 °C 4.4 °F /  -15.3 °C 1022.2 in /  34611.7 hPa South 8.0 mph /  12.9 km/h 12.9 mph /  20.8 km/h 84 % 0.0 in /  0 mm 288 W/m2
11:15 7.2 °F /  -13.8 °C 4.4 °F /  -15.3 °C 1021.9 in /  34601.5 hPa SSE 4.8 mph /  7.7 km/h 17.7 mph /  28.5 km/h 82 % 0.0 in /  0 mm 178 W/m2
11:20 7.2 °F /  -13.8 °C 4.2 °F /  -15.4 °C 1021.9 in /  34601.5 hPa SSW 4.8 mph /  7.7 km/h 14.5 mph /  23.3 km/h 81 % 0.0 in /  0 mm 239 W/m2
11:25 7.4 °F /  -13.7 °C 4.3 °F /  -15.4 °C 1021.9 in /  34601.5 hPa South 8.0 mph /  12.9 km/h 16.1 mph /  25.9 km/h 81 % 0.0 in /  0 mm 315 W/m2
11:30 7.7 °F /  -13.5 °C 4.6 °F /  -15.2 °C 1021.9 in /  34601.5 hPa South 4.8 mph /  7.7 km/h 16.1 mph /  25.9 km/h 81 % 0.0 in /  0 mm 258 W/m2
11:35 7.7 °F /  -13.5 °C 4.3 °F /  -15.4 °C 1021.9 in /  34601.5 hPa South 8.0 mph /  12.9 km/h 14.5 mph /  23.3 km/h 79 % 0.0 in /  0 mm 144 W/m2
11:40 7.8 °F /  -13.4 °C 4.4 °F /  -15.3 °C 1021.9 in /  34601.5 hPa SSW 8.0 mph /  12.9 km/h 17.7 mph /  28.5 km/h 79 % 0.0 in /  0 mm 146 W/m2
11:45 7.8 °F /  -13.4 °C 4.2 °F /  -15.4 °C 1021.6 in /  34591.4 hPa SSW 11.3 mph /  18.2 km/h 17.7 mph /  28.5 km/h 78 % 0.0 in /  0 mm 404 W/m2
11:50 8.1 °F /  -13.3 °C 4.1 °F /  -15.5 °C 1021.6 in /  34591.4 hPa South 12.9 mph /  20.8 km/h 22.5 mph /  36.2 km/h 76 % 0.0 in /  0 mm 403 W/m2
11:55 8.3 °F /  -13.2 °C 4.2 °F /  -15.4 °C 1021.6 in /  34591.4 hPa SSE 11.3 mph /  18.2 km/h 22.5 mph /  36.2 km/h 75 % 0.0 in /  0 mm 446 W/m2
12:00 8.3 °F /  -13.2 °C 4.0 °F /  -15.6 °C 1021.9 in /  34601.5 hPa South 17.7 mph /  28.5 km/h 22.5 mph /  36.2 km/h 74 % 0.0 in /  0 mm 223 W/m2
12:05 8.1 °F /  -13.3 °C 4.1 °F /  -15.5 °C 1021.9 in /  34601.5 hPa SSW 11.3 mph /  18.2 km/h 27.4 mph /  44.1 km/h 76 % 0.0 in /  0 mm 169 W/m2
12:10 7.9 °F /  -13.4 °C 4.2 °F /  -15.4 °C 1021.9 in /  34601.5 hPa South 14.5 mph /  23.3 km/h 27.4 mph /  44.1 km/h 77 % 0.0 in /  0 mm 160 W/m2
12:15 7.8 °F /  -13.4 °C 4.4 °F /  -15.3 °C 1021.9 in /  34601.5 hPa SSW 4.8 mph /  7.7 km/h 24.1 mph /  38.8 km/h 79 % 0.0 in /  0 mm 105 W/m2
12:20 7.8 °F /  -13.4 °C 4.5 °F /  -15.3 °C 1021.9 in /  34601.5 hPa South 12.9 mph /  20.8 km/h 19.3 mph /  31.1 km/h 80 % 0.0 in /  0 mm 148 W/m2
12:25 7.8 °F /  -13.4 °C 4.8 °F /  -15.1 °C 1021.6 in /  34591.4 hPa South 11.3 mph /  18.2 km/h 19.3 mph /  31.1 km/h 81 % 0.0 in /  0 mm 179 W/m2
12:30 8.0 °F /  -13.3 °C 4.9 °F /  -15.1 °C 1021.6 in /  34591.4 hPa South 17.7 mph /  28.5 km/h 19.3 mph /  31.1 km/h 81 % 0.0 in /  0 mm 204 W/m2
12:35 8.1 °F /  -13.3 °C 5.0 °F /  -15 °C 1021.6 in /  34591.4 hPa SSW 11.3 mph /  18.2 km/h 22.5 mph /  36.2 km/h 81 % 0.0 in /  0 mm 221 W/m2
12:40 8.3 °F /  -13.2 °C 5.4 °F /  -14.8 °C 1021.6 in /  34591.4 hPa SSW 8.0 mph /  12.9 km/h 22.5 mph /  36.2 km/h 82 % 0.0 in /  0 mm 206 W/m2
12:45 8.4 °F /  -13.1 °C 5.3 °F /  -14.8 °C 1021.6 in /  34591.4 hPa SSW 11.3 mph /  18.2 km/h 19.3 mph /  31.1 km/h 81 % 0.0 in /  0 mm 232 W/m2
12:50 8.4 °F /  -13.1 °C 5.5 °F /  -14.7 °C 1021.2 in /  34577.8 hPa SSE 12.9 mph /  20.8 km/h 22.5 mph /  36.2 km/h 82 % 0.0 in /  0 mm 229 W/m2
12:55 8.6 °F /  -13 °C 5.5 °F /  -14.7 °C 1021.2 in /  34577.8 hPa SSW 14.5 mph /  23.3 km/h 22.5 mph /  36.2 km/h 81 % 0.0 in /  0 mm 232 W/m2
13:00 8.7 °F /  -12.9 °C 5.6 °F /  -14.7 °C 1021.2 in /  34577.8 hPa SSW 9.7 mph /  15.6 km/h 24.1 mph /  38.8 km/h 81 % 0.0 in /  0 mm 209 W/m2
13:05 8.8 °F /  -12.9 °C 5.9 °F /  -14.5 °C 1021.2 in /  34577.8 hPa SSW 8.0 mph /  12.9 km/h 24.1 mph /  38.8 km/h 82 % 0.0 in /  0 mm 327 W/m2
13:10 9.0 °F /  -12.8 °C 5.9 °F /  -14.5 °C 1020.9 in /  34567.7 hPa South 6.4 mph /  10.3 km/h 19.3 mph /  31.1 km/h 81 % 0.0 in /  0 mm 339 W/m2
13:15 9.1 °F /  -12.7 °C 5.8 °F /  -14.6 °C 1020.9 in /  34567.7 hPa SSW 12.9 mph /  20.8 km/h 25.7 mph /  41.4 km/h 80 % 0.0 in /  0 mm 278 W/m2
13:20 8.9 °F /  -12.8 °C 5.7 °F /  -14.6 °C 1020.9 in /  34567.7 hPa South 11.3 mph /  18.2 km/h 25.7 mph /  41.4 km/h 80 % 0.0 in /  0 mm 329 W/m2
13:25 9.2 °F /  -12.7 °C 5.9 °F /  -14.5 °C 1020.9 in /  34567.7 hPa South 12.9 mph /  20.8 km/h 22.5 mph /  36.2 km/h 80 % 0.0 in /  0 mm 410 W/m2
13:30 9.1 °F /  -12.7 °C 5.8 °F /  -14.6 °C 1020.5 in /  34554.1 hPa SSW 8.0 mph /  12.9 km/h 20.9 mph /  33.6 km/h 80 % 0.0 in /  0 mm 357 W/m2
13:35 9.3 °F /  -12.6 °C 6.2 °F /  -14.3 °C 1020.5 in /  34554.1 hPa South 16.1 mph /  25.9 km/h 24.1 mph /  38.8 km/h 81 % 0.0 in /  0 mm 371 W/m2
13:40 9.3 °F /  -12.6 °C 5.9 °F /  -14.5 °C 1020.5 in /  34554.1 hPa South 4.8 mph /  7.7 km/h 24.1 mph /  38.8 km/h 79 % 0.0 in /  0 mm 343 W/m2
13:45 9.2 °F /  -12.7 °C 5.9 °F /  -14.5 °C 1020.5 in /  34554.1 hPa SSW 8.0 mph /  12.9 km/h 24.1 mph /  38.8 km/h 80 % 0.0 in /  0 mm 267 W/m2
13:50 9.1 °F /  -12.7 °C 5.8 °F /  -14.6 °C 1020.5 in /  34554.1 hPa SW 9.7 mph /  15.6 km/h 29.0 mph /  46.7 km/h 80 % 0.0 in /  0 mm 265 W/m2
13:55 9.1 °F /  -12.7 °C 6.0 °F /  -14.4 °C 1020.2 in /  34544 hPa Calm   29.0 mph /  46.7 km/h 81 % 0.0 in /  0 mm 274 W/m2
14:00 9.1 °F /  -12.7 °C 6.0 °F /  -14.4 °C 1020.2 in /  34544 hPa SW 8.0 mph /  12.9 km/h 29.0 mph /  46.7 km/h 81 % 0.0 in /  0 mm 281 W/m2
14:05 9.1 °F /  -12.7 °C 6.0 °F /  -14.4 °C 1019.9 in /  34533.8 hPa South 6.4 mph /  10.3 km/h 29.0 mph /  46.7 km/h 81 % 0.0 in /  0 mm 288 W/m2
14:15 9.1 °F /  -12.7 °C 6.0 °F /  -14.4 °C 1019.9 in /  34533.8 hPa SSW 12.9 mph /  20.8 km/h 27.4 mph /  44.1 km/h 81 % 0.0 in /  0 mm 209 W/m2
14:20 9.0 °F /  -12.8 °C 6.1 °F /  -14.4 °C 1019.9 in /  34533.8 hPa SW 11.3 mph /  18.2 km/h 27.4 mph /  44.1 km/h 82 % 0.0 in /  0 mm 230 W/m2
14:25 8.9 °F /  -12.8 °C 5.9 °F /  -14.5 °C 1019.5 in /  34520.3 hPa SSW 14.5 mph /  23.3 km/h 22.5 mph /  36.2 km/h 81 % 0.0 in /  0 mm 135 W/m2
14:30 8.8 °F /  -12.9 °C 5.9 °F /  -14.5 °C 1019.9 in /  34533.8 hPa South 19.3 mph /  31.1 km/h 20.9 mph /  33.6 km/h 82 % 0.0 in /  0 mm 179 W/m2
14:35 8.8 °F /  -12.9 °C 5.9 °F /  -14.5 °C 1019.5 in /  34520.3 hPa SSW 6.4 mph /  10.3 km/h 19.3 mph /  31.1 km/h 82 % 0.0 in /  0 mm 169 W/m2
14:40 8.8 °F /  -12.9 °C 6.1 °F /  -14.4 °C 1019.5 in /  34520.3 hPa SSW 6.4 mph /  10.3 km/h 24.1 mph /  38.8 km/h 83 % 0.0 in /  0 mm 172 W/m2
14:45 8.8 °F /  -12.9 °C 5.9 °F /  -14.5 °C 1019.5 in /  34520.3 hPa SSW 9.7 mph /  15.6 km/h 24.1 mph /  38.8 km/h 82 % 0.0 in /  0 mm 158 W/m2
14:50 8.7 °F /  -12.9 °C 5.8 °F /  -14.6 °C 1019.5 in /  34520.3 hPa SSW 8.0 mph /  12.9 km/h 24.1 mph /  38.8 km/h 82 % 0.0 in /  0 mm 114 W/m2
15:00 8.7 °F /  -12.9 °C 6.1 °F /  -14.4 °C 1019.5 in /  34520.3 hPa SSW 11.3 mph /  18.2 km/h 24.1 mph /  38.8 km/h 84 % 0.0 in /  0 mm 104 W/m2
15:05 8.6 °F /  -13 °C 6.1 °F /  -14.4 °C 1019.5 in /  34520.3 hPa SW 12.9 mph /  20.8 km/h 25.7 mph /  41.4 km/h 84 % 0.0 in /  0 mm 81 W/m2
15:10 8.6 °F /  -13 °C 6.2 °F /  -14.3 °C 1019.2 in /  34510.1 hPa SW 8.0 mph /  12.9 km/h 25.7 mph /  41.4 km/h 85 % 0.0 in /  0 mm 141 W/m2
15:15 8.7 °F /  -12.9 °C 6.3 °F /  -14.3 °C 1019.2 in /  34510.1 hPa South 9.7 mph /  15.6 km/h 22.5 mph /  36.2 km/h 85 % 0.0 in /  0 mm 102 W/m2
15:20 8.6 °F /  -13 °C 6.1 °F /  -14.4 °C 1019.2 in /  34510.1 hPa WSW 11.3 mph /  18.2 km/h 19.3 mph /  31.1 km/h 84 % 0.0 in /  0 mm 84 W/m2
15:25 8.6 °F /  -13 °C 6.2 °F /  -14.3 °C 1019.2 in /  34510.1 hPa SW 3.2 mph /  5.1 km/h 27.4 mph /  44.1 km/h 85 % 0.0 in /  0 mm 88 W/m2
15:30 8.6 °F /  -13 °C 6.2 °F /  -14.3 °C 1019.2 in /  34510.1 hPa WSW 9.7 mph /  15.6 km/h 27.4 mph /  44.1 km/h 85 % 0.0 in /  0 mm 81 W/m2
15:35 8.6 °F /  -13 °C 6.2 °F /  -14.3 °C 1019.2 in /  34510.1 hPa SW 6.4 mph /  10.3 km/h 24.1 mph /  38.8 km/h 85 % 0.0 in /  0 mm 74 W/m2
15:40 8.6 °F /  -13 °C 6.2 °F /  -14.3 °C 1018.8 in /  34496.6 hPa South 16.1 mph /  25.9 km/h 22.5 mph /  36.2 km/h 85 % 0.0 in /  0 mm 84 W/m2
15:45 8.6 °F /  -13 °C 6.2 °F /  -14.3 °C 1018.8 in /  34496.6 hPa South 8.0 mph /  12.9 km/h 22.5 mph /  36.2 km/h 85 % 0.0 in /  0 mm 107 W/m2
15:50 8.6 °F /  -13 °C 6.2 °F /  -14.3 °C 1018.8 in /  34496.6 hPa SSW 14.5 mph /  23.3 km/h 24.1 mph /  38.8 km/h 85 % 0.0 in /  0 mm 97 W/m2
15:55 8.7 °F /  -12.9 °C 6.3 °F /  -14.3 °C 1018.5 in /  34486.4 hPa SW 6.4 mph /  10.3 km/h 24.1 mph /  38.8 km/h 85 % 0.0 in /  0 mm 79 W/m2
16:00 8.6 °F /  -13 °C 6.2 °F /  -14.3 °C 1018.5 in /  34486.4 hPa SW 11.3 mph /  18.2 km/h 25.7 mph /  41.4 km/h 85 % 0.0 in /  0 mm 76 W/m2
16:05 8.6 °F /  -13 °C 6.2 °F /  -14.3 °C 1018.5 in /  34486.4 hPa SW 9.7 mph /  15.6 km/h 25.7 mph /  41.4 km/h 85 % 0.0 in /  0 mm 83 W/m2
16:10 8.6 °F /  -13 °C 6.4 °F /  -14.2 °C 1018.2 in /  34476.3 hPa SSW 6.4 mph /  10.3 km/h 19.3 mph /  31.1 km/h 86 % 0.0 in /  0 mm 86 W/m2
16:15 8.7 °F /  -12.9 °C 6.5 °F /  -14.2 °C 1018.2 in /  34476.3 hPa South 9.7 mph /  15.6 km/h 24.1 mph /  38.8 km/h 86 % 0.0 in /  0 mm 88 W/m2
16:20 8.7 °F /  -12.9 °C 6.5 °F /  -14.2 °C 1017.8 in /  34462.7 hPa SSW 16.1 mph /  25.9 km/h 27.4 mph /  44.1 km/h 86 % 0.0 in /  0 mm 72 W/m2
16:30 8.7 °F /  -12.9 °C 6.6 °F /  -14.1 °C 1017.8 in /  34462.7 hPa South 4.8 mph /  7.7 km/h 24.1 mph /  38.8 km/h 87 % 0.0 in /  0 mm 47 W/m2
16:35 8.7 °F /  -12.9 °C 6.6 °F /  -14.1 °C 1017.8 in /  34462.7 hPa SSW 14.5 mph /  23.3 km/h 24.1 mph /  38.8 km/h 87 % 0.0 in /  0 mm 47 W/m2
16:40 8.7 °F /  -12.9 °C 6.6 °F /  -14.1 °C 1017.5 in /  34452.6 hPa SSW 16.1 mph /  25.9 km/h 27.4 mph /  44.1 km/h 87 % 0.0 in /  0 mm 47 W/m2
16:45 8.7 °F /  -12.9 °C 6.6 °F /  -14.1 °C 1017.5 in /  34452.6 hPa SSW 11.3 mph /  18.2 km/h 27.4 mph /  44.1 km/h 87 % 0.0 in /  0 mm 53 W/m2
16:50 8.7 °F /  -12.9 °C 6.6 °F /  -14.1 °C 1017.5 in /  34452.6 hPa SSW 12.9 mph /  20.8 km/h 22.5 mph /  36.2 km/h 87 % 0.0 in /  0 mm 49 W/m2
16:55 8.7 °F /  -12.9 °C 6.8 °F /  -14 °C 1017.5 in /  34452.6 hPa SSW 9.7 mph /  15.6 km/h 27.4 mph /  44.1 km/h 88 % 0.0 in /  0 mm 39 W/m2
17:00 8.7 °F /  -12.9 °C 6.8 °F /  -14 °C 1017.5 in /  34452.6 hPa WSW 22.5 mph /  36.2 km/h 27.4 mph /  44.1 km/h 88 % 0.0 in /  0 mm 35 W/m2
17:05 8.7 °F /  -12.9 °C 6.8 °F /  -14 °C 1017.5 in /  34452.6 hPa SW 12.9 mph /  20.8 km/h 25.7 mph /  41.4 km/h 88 % 0.0 in /  0 mm 35 W/m2
17:10 8.7 °F /  -12.9 °C 6.8 °F /  -14 °C 1017.5 in /  34452.6 hPa SW 8.0 mph /  12.9 km/h 22.5 mph /  36.2 km/h 88 % 0.0 in /  0 mm 35 W/m2
17:15 8.7 °F /  -12.9 °C 7.0 °F /  -13.9 °C 1017.2 in /  34442.4 hPa SSW 8.0 mph /  12.9 km/h 20.9 mph /  33.6 km/h 89 % 0.0 in /  0 mm 30 W/m2
17:20 8.7 °F /  -12.9 °C 7.0 °F /  -13.9 °C 1017.5 in /  34452.6 hPa WSW 17.7 mph /  28.5 km/h 20.9 mph /  33.6 km/h 89 % 0.0 in /  0 mm 19 W/m2
17:25 8.7 °F /  -12.9 °C 7.0 °F /  -13.9 °C 1017.5 in /  34452.6 hPa SSW 9.7 mph /  15.6 km/h 20.9 mph /  33.6 km/h 89 % 0.0 in /  0 mm 16 W/m2
17:30 8.7 °F /  -12.9 °C 7.1 °F /  -13.8 °C 1017.5 in /  34452.6 hPa SSW 11.3 mph /  18.2 km/h 20.9 mph /  33.6 km/h 90 % 0.0 in /  0 mm 14 W/m2
17:35 8.7 °F /  -12.9 °C 7.2 °F /  -13.8 °C 1017.5 in /  34452.6 hPa South 9.7 mph /  15.6 km/h 20.9 mph /  33.6 km/h 90 % 0.0 in /  0 mm 11 W/m2
17:40 8.7 °F /  -12.9 °C 7.2 °F /  -13.8 °C 1017.2 in /  34442.4 hPa SW 8.0 mph /  12.9 km/h 20.9 mph /  33.6 km/h 90 % 0.0 in /  0 mm 12 W/m2
17:45 8.7 °F /  -12.9 °C 7.2 °F /  -13.8 °C 1017.2 in /  34442.4 hPa SW 11.3 mph /  18.2 km/h 22.5 mph /  36.2 km/h 90 % 0.0 in /  0 mm 16 W/m2
17:50 8.8 °F /  -12.9 °C 7.4 °F /  -13.7 °C 1016.8 in /  34428.8 hPa SSW 9.7 mph /  15.6 km/h 22.5 mph /  36.2 km/h 91 % 0.0 in /  0 mm 12 W/m2
17:55 8.8 °F /  -12.9 °C 7.4 °F /  -13.7 °C 1016.5 in /  34418.7 hPa South 9.7 mph /  15.6 km/h 19.3 mph /  31.1 km/h 91 % 0.0 in /  0 mm 12 W/m2
18:00 8.8 °F /  -12.9 °C 7.4 °F /  -13.7 °C 1016.5 in /  34418.7 hPa SSW 11.3 mph /  18.2 km/h 19.3 mph /  31.1 km/h 91 % 0.0 in /  0 mm 11 W/m2
18:05 8.8 °F /  -12.9 °C 7.4 °F /  -13.7 °C 1016.5 in /  34418.7 hPa SSW 17.7 mph /  28.5 km/h 22.5 mph /  36.2 km/h 91 % 0.0 in /  0 mm 9 W/m2
18:10 8.8 °F /  -12.9 °C 7.4 °F /  -13.7 °C 1016.5 in /  34418.7 hPa South 4.8 mph /  7.7 km/h 22.5 mph /  36.2 km/h 91 % 0.0 in /  0 mm 5 W/m2
18:15 8.8 °F /  -12.9 °C 7.5 °F /  -13.6 °C 1016.5 in /  34418.7 hPa SSE 9.7 mph /  15.6 km/h 19.3 mph /  31.1 km/h 92 % 0.0 in /  0 mm 5 W/m2
18:20 8.8 °F /  -12.9 °C 7.5 °F /  -13.6 °C 1016.5 in /  34418.7 hPa SW 14.5 mph /  23.3 km/h 17.7 mph /  28.5 km/h 92 % 0.0 in /  0 mm 0 W/m2
18:25 8.8 °F /  -12.9 °C 7.5 °F /  -13.6 °C 1016.5 in /  34418.7 hPa SW 6.4 mph /  10.3 km/h 17.7 mph /  28.5 km/h 92 % 0.0 in /  0 mm 0 W/m2
18:30 8.8 °F /  -12.9 °C 7.5 °F /  -13.6 °C 1016.1 in /  34405.1 hPa SSW 6.4 mph /  10.3 km/h 20.9 mph /  33.6 km/h 92 % 0.0 in /  0 mm 0 W/m2
18:35 8.8 °F /  -12.9 °C 7.6 °F /  -13.6 °C 1016.1 in /  34405.1 hPa West 8.0 mph /  12.9 km/h 20.9 mph /  33.6 km/h 92 % 0.0 in /  0 mm 0 W/m2
18:40 8.9 °F /  -12.8 °C 7.7 °F /  -13.5 °C 1016.1 in /  34405.1 hPa WNW 3.2 mph /  5.1 km/h 19.3 mph /  31.1 km/h 92 % 0.0 in /  0 mm 0 W/m2
18:45 8.9 °F /  -12.8 °C 7.7 °F /  -13.5 °C 1016.1 in /  34405.1 hPa SSW 9.7 mph /  15.6 km/h 19.3 mph /  31.1 km/h 92 % 0.0 in /  0 mm 0 W/m2
18:50 8.9 °F /  -12.8 °C 7.7 °F /  -13.5 °C 1016.1 in /  34405.1 hPa South 12.9 mph /  20.8 km/h 19.3 mph /  31.1 km/h 92 % 0.0 in /  0 mm 0 W/m2
18:55 9.0 °F /  -12.8 °C 7.8 °F /  -13.4 °C 1016.1 in /  34405.1 hPa SSW 6.4 mph /  10.3 km/h 19.3 mph /  31.1 km/h 92 % 0.0 in /  0 mm 0 W/m2
19:00 9.0 °F /  -12.8 °C 7.8 °F /  -13.4 °C 1016.1 in /  34405.1 hPa SSW 9.7 mph /  15.6 km/h 24.1 mph /  38.8 km/h 92 % 0.0 in /  0 mm 0 W/m2
19:05 9.1 °F /  -12.7 °C 7.8 °F /  -13.4 °C 1015.8 in /  34395 hPa SSW 4.8 mph /  7.7 km/h 24.1 mph /  38.8 km/h 92 % 0.0 in /  0 mm 0 W/m2
19:10 9.0 °F /  -12.8 °C 7.8 °F /  -13.4 °C 1015.8 in /  34395 hPa SSW 19.3 mph /  31.1 km/h 19.3 mph /  31.1 km/h 92 % 0.0 in /  0 mm 0 W/m2
19:15 8.9 °F /  -12.8 °C 7.7 °F /  -13.5 °C 1015.8 in /  34395 hPa WSW 12.9 mph /  20.8 km/h 20.9 mph /  33.6 km/h 92 % 0.0 in /  0 mm 0 W/m2
19:20 8.9 °F /  -12.8 °C 7.9 °F /  -13.4 °C 1015.8 in /  34395 hPa SSW 14.5 mph /  23.3 km/h 20.9 mph /  33.6 km/h 93 % 0.0 in /  0 mm 0 W/m2
19:25 8.9 °F /  -12.8 °C 7.8 °F /  -13.4 °C 1015.8 in /  34395 hPa SW 8.0 mph /  12.9 km/h 17.7 mph /  28.5 km/h 93 % 0.0 in /  0 mm 0 W/m2
19:30 8.9 °F /  -12.8 °C 8.0 °F /  -13.3 °C 1015.8 in /  34395 hPa SSE 6.4 mph /  10.3 km/h 22.5 mph /  36.2 km/h 94 % 0.0 in /  0 mm 0 W/m2
19:35 8.9 °F /  -12.8 °C 8.0 °F /  -13.3 °C 1015.5 in /  34384.8 hPa SSW 9.7 mph /  15.6 km/h 22.5 mph /  36.2 km/h 94 % 0.0 in /  0 mm 0 W/m2
19:40 8.9 °F /  -12.8 °C 8.1 °F /  -13.3 °C 1015.8 in /  34395 hPa WSW 9.7 mph /  15.6 km/h 19.3 mph /  31.1 km/h 95 % 0.3 in /  7.62 mm 0 W/m2
19:45 8.9 °F /  -12.8 °C 8.1 °F /  -13.3 °C 1015.5 in /  34384.8 hPa WSW 4.8 mph /  7.7 km/h 19.3 mph /  31.1 km/h 95 % 0.3 in /  7.62 mm 0 W/m2
19:50 8.9 °F /  -12.8 °C 8.1 °F /  -13.3 °C 1015.5 in /  34384.8 hPa SW 4.8 mph /  7.7 km/h 19.3 mph /  31.1 km/h 95 % 0.3 in /  7.62 mm 0 W/m2
19:55 8.9 °F /  -12.8 °C 8.1 °F /  -13.3 °C 1015.5 in /  34384.8 hPa SW 4.8 mph /  7.7 km/h 17.7 mph /  28.5 km/h 95 % 0.3 in /  7.62 mm 0 W/m2
20:00 8.9 °F /  -12.8 °C 8.1 °F /  -13.3 °C 1015.5 in /  34384.8 hPa WSW 8.0 mph /  12.9 km/h 17.7 mph /  28.5 km/h 95 % 0.3 in /  7.62 mm 0 W/m2
20:05 8.9 °F /  -12.8 °C 8.1 °F /  -13.3 °C 1015.5 in /  34384.8 hPa SW 4.8 mph /  7.7 km/h 20.9 mph /  33.6 km/h 95 % 0.3 in /  7.62 mm 0 W/m2
20:10 8.8 °F /  -12.9 °C 8.2 °F /  -13.2 °C 1015.5 in /  34384.8 hPa Calm   20.9 mph /  33.6 km/h 96 % 0.3 in /  7.62 mm 0 W/m2
20:15 8.8 °F /  -12.9 °C 8.2 °F /  -13.2 °C 1015.1 in /  34371.3 hPa SSW 4.8 mph /  7.7 km/h 16.1 mph /  25.9 km/h 96 % 0.5 in /  12.7 mm 0 W/m2
20:20 8.7 °F /  -12.9 °C 8.1 °F /  -13.3 °C 1015.1 in /  34371.3 hPa SW 3.2 mph /  5.1 km/h 17.7 mph /  28.5 km/h 96 % 0.5 in /  12.7 mm 0 W/m2
20:25 8.7 °F /  -12.9 °C 8.1 °F /  -13.3 °C 1015.1 in /  34371.3 hPa West 4.8 mph /  7.7 km/h 20.9 mph /  33.6 km/h 96 % 0.5 in /  12.7 mm 0 W/m2
20:30 8.7 °F /  -12.9 °C 8.1 °F /  -13.3 °C 1015.1 in /  34371.3 hPa West 9.7 mph /  15.6 km/h 20.9 mph /  33.6 km/h 96 % 0.5 in /  12.7 mm 0 W/m2
20:35 8.7 °F /  -12.9 °C 8.1 °F /  -13.3 °C 1014.8 in /  34361.1 hPa West 1.6 mph /  2.6 km/h 25.7 mph /  41.4 km/h 96 % 0.8 in /  20.32 mm 0 W/m2
20:40 8.7 °F /  -12.9 °C 8.1 °F /  -13.3 °C 1014.8 in /  34361.1 hPa South 4.8 mph /  7.7 km/h 25.7 mph /  41.4 km/h 96 % 0.5 in /  12.7 mm 0 W/m2
20:45 8.8 °F /  -12.9 °C 8.2 °F /  -13.2 °C 1014.8 in /  34361.1 hPa South 14.5 mph /  23.3 km/h 19.3 mph /  31.1 km/h 96 % 0.5 in /  12.7 mm 0 W/m2
20:50 8.8 °F /  -12.9 °C 8.2 °F /  -13.2 °C 1014.4 in /  34347.6 hPa SW 3.2 mph /  5.1 km/h 19.3 mph /  31.1 km/h 96 % 0.8 in /  20.32 mm 0 W/m2
20:55 8.8 °F /  -12.9 °C 8.2 °F /  -13.2 °C 1014.4 in /  34347.6 hPa SW 3.2 mph /  5.1 km/h 24.1 mph /  38.8 km/h 96 % 0.8 in /  20.32 mm 0 W/m2
21:00 8.9 °F /  -12.8 °C 8.3 °F /  -13.2 °C 1014.4 in /  34347.6 hPa SW 6.4 mph /  10.3 km/h 24.1 mph /  38.8 km/h 96 % 0.8 in /  20.32 mm 0 W/m2
21:05 8.9 °F /  -12.8 °C 8.3 °F /  -13.2 °C 1014.1 in /  34337.4 hPa WSW 9.7 mph /  15.6 km/h 20.9 mph /  33.6 km/h 96 % 0.8 in /  20.32 mm 0 W/m2
21:10 8.9 °F /  -12.8 °C 8.3 °F /  -13.2 °C 1014.1 in /  34337.4 hPa West 8.0 mph /  12.9 km/h 24.1 mph /  38.8 km/h 96 % 0.5 in /  12.7 mm 0 W/m2
21:15 9.0 °F /  -12.8 °C 8.5 °F /  -13.1 °C 1014.1 in /  34337.4 hPa SSW 4.8 mph /  7.7 km/h 24.1 mph /  38.8 km/h 97 % 0.5 in /  12.7 mm 0 W/m2
21:20 9.1 °F /  -12.7 °C 8.6 °F /  -13 °C 1013.8 in /  34327.3 hPa SSW 6.4 mph /  10.3 km/h 24.1 mph /  38.8 km/h 97 % 0.8 in /  20.32 mm 0 W/m2
21:25 9.1 °F /  -12.7 °C 8.6 °F /  -13 °C 1013.8 in /  34327.3 hPa WSW 17.7 mph /  28.5 km/h 24.1 mph /  38.8 km/h 97 % 0.5 in /  12.7 mm 0 W/m2
21:30 9.1 °F /  -12.7 °C 8.7 °F /  -12.9 °C 1013.8 in /  34327.3 hPa SSW 9.7 mph /  15.6 km/h 24.1 mph /  38.8 km/h 97 % 0.5 in /  12.7 mm 0 W/m2
21:35 9.2 °F /  -12.7 °C 8.7 °F /  -12.9 °C 1013.8 in /  34327.3 hPa WSW 11.3 mph /  18.2 km/h 24.1 mph /  38.8 km/h 97 % 0.5 in /  12.7 mm 0 W/m2
21:40 9.2 °F /  -12.7 °C 8.7 °F /  -12.9 °C 1013.4 in /  34313.7 hPa South 6.4 mph /  10.3 km/h 24.1 mph /  38.8 km/h 97 % 0.5 in /  12.7 mm 0 W/m2
21:45 9.2 °F /  -12.7 °C 8.8 °F /  -12.9 °C 1013.8 in /  34327.3 hPa SW 11.3 mph /  18.2 km/h 22.5 mph /  36.2 km/h 97 % 0.5 in /  12.7 mm 0 W/m2
21:55 9.3 °F /  -12.6 °C 8.8 °F /  -12.9 °C 1013.4 in /  34313.7 hPa SW 12.9 mph /  20.8 km/h 20.9 mph /  33.6 km/h 97 % 0.3 in /  7.62 mm 0 W/m2
22:00 9.3 °F /  -12.6 °C 8.8 °F /  -12.9 °C 1013.4 in /  34313.7 hPa South 6.4 mph /  10.3 km/h 20.9 mph /  33.6 km/h 97 % 0.3 in /  7.62 mm 0 W/m2
22:05 9.3 °F /  -12.6 °C 8.9 °F /  -12.8 °C 1013.8 in /  34327.3 hPa SSW 9.7 mph /  15.6 km/h 24.1 mph /  38.8 km/h 97 % 0.3 in /  7.62 mm 0 W/m2
22:10 9.3 °F /  -12.6 °C 8.9 °F /  -12.8 °C 1013.4 in /  34313.7 hPa WSW 8.0 mph /  12.9 km/h 24.1 mph /  38.8 km/h 97 % 0.5 in /  12.7 mm 0 W/m2
22:15 9.4 °F /  -12.6 °C 8.9 °F /  -12.8 °C 1013.4 in /  34313.7 hPa SW 9.7 mph /  15.6 km/h 24.1 mph /  38.8 km/h 97 % 0.5 in /  12.7 mm 0 W/m2
22:20 9.4 °F /  -12.6 °C 9.0 °F /  -12.8 °C 1013.4 in /  34313.7 hPa SW 6.4 mph /  10.3 km/h 24.1 mph /  38.8 km/h 97 % 0.3 in /  7.62 mm 0 W/m2
22:30 9.4 °F /  -12.6 °C 9.0 °F /  -12.8 °C 1013.1 in /  34303.6 hPa WSW 16.1 mph /  25.9 km/h 22.5 mph /  36.2 km/h 97 % 0.3 in /  7.62 mm 0 W/m2
22:35 9.5 °F /  -12.5 °C 9.0 °F /  -12.8 °C 1013.1 in /  34303.6 hPa West 11.3 mph /  18.2 km/h 25.7 mph /  41.4 km/h 97 % 0.3 in /  7.62 mm 0 W/m2
22:40 9.6 °F /  -12.4 °C 9.1 °F /  -12.7 °C 1013.1 in /  34303.6 hPa WSW 16.1 mph /  25.9 km/h 25.7 mph /  41.4 km/h 97 % 0.3 in /  7.62 mm 0 W/m2
22:45 9.6 °F /  -12.4 °C 9.1 °F /  -12.7 °C 1012.8 in /  34293.4 hPa SW 16.1 mph /  25.9 km/h 25.7 mph /  41.4 km/h 97 % 0.3 in /  7.62 mm 0 W/m2
22:50 9.6 °F /  -12.4 °C 9.2 °F /  -12.7 °C 1012.8 in /  34293.4 hPa WSW 9.7 mph /  15.6 km/h 24.1 mph /  38.8 km/h 97 % 0.3 in /  7.62 mm 0 W/m2
22:55 9.7 °F /  -12.4 °C 9.2 °F /  -12.7 °C 1012.8 in /  34293.4 hPa SW 8.0 mph /  12.9 km/h 27.4 mph /  44.1 km/h 97 % 0.3 in /  7.62 mm 0 W/m2
23:00 9.7 °F /  -12.4 °C 9.4 °F /  -12.6 °C 1012.4 in /  34279.9 hPa WSW 12.9 mph /  20.8 km/h 27.4 mph /  44.1 km/h 98 % 0.3 in /  7.62 mm 0 W/m2
23:05 9.7 °F /  -12.4 °C 9.2 °F /  -12.7 °C 1012.4 in /  34279.9 hPa WSW 9.7 mph /  15.6 km/h 22.5 mph /  36.2 km/h 97 % 0.0 in /  0 mm 0 W/m2
23:10 9.7 °F /  -12.4 °C 9.2 °F /  -12.7 °C 1012.4 in /  34279.9 hPa WSW 8.0 mph /  12.9 km/h 25.7 mph /  41.4 km/h 97 % 0.0 in /  0 mm 0 W/m2
23:15 9.7 °F /  -12.4 °C 9.3 °F /  -12.6 °C 1012.4 in /  34279.9 hPa SSW 4.8 mph /  7.7 km/h 25.7 mph /  41.4 km/h 97 % 0.0 in /  0 mm 0 W/m2
23:20 9.7 °F /  -12.4 °C 9.3 °F /  -12.6 °C 1012.1 in /  34269.7 hPa SSW 8.0 mph /  12.9 km/h 24.1 mph /  38.8 km/h 97 % 0.0 in /  0 mm 0 W/m2
23:25 9.7 °F /  -12.4 °C 9.3 °F /  -12.6 °C 1012.4 in /  34279.9 hPa NW 12.9 mph /  20.8 km/h 24.1 mph /  38.8 km/h 97 % 0.3 in /  7.62 mm 0 W/m2
23:30 9.7 °F /  -12.4 °C 9.3 °F /  -12.6 °C 1012.1 in /  34269.7 hPa SW 3.2 mph /  5.1 km/h 22.5 mph /  36.2 km/h 97 % 0.3 in /  7.62 mm 0 W/m2
23:35 9.7 °F /  -12.4 °C 9.4 °F /  -12.6 °C 1012.1 in /  34269.7 hPa WSW 11.3 mph /  18.2 km/h 20.9 mph /  33.6 km/h 98 % 0.5 in /  12.7 mm 0 W/m2
23:40 9.8 °F /  -12.3 °C 9.5 °F /  -12.5 °C 1012.1 in /  34269.7 hPa WSW 14.5 mph /  23.3 km/h 20.9 mph /  33.6 km/h 98 % 0.5 in /  12.7 mm 0 W/m2
23:45 9.8 °F /  -12.3 °C 9.5 °F /  -12.5 °C 1012.1 in /  34269.7 hPa WSW 12.9 mph /  20.8 km/h 20.9 mph /  33.6 km/h 98 % 0.5 in /  12.7 mm 0 W/m2
23:50 9.8 °F /  -12.3 °C 9.5 °F /  -12.5 °C 1011.7 in /  34256.2 hPa WSW 6.4 mph /  10.3 km/h 20.9 mph /  33.6 km/h 98 % 0.5 in /  12.7 mm 0 W/m2
Avec l'autorisation de Weather Underground - 1.75 mb